»·PEaware :: N2809K KRIV-KOXR

N2809K :: KRIV-KOXR

FLIGHT INFORMATION

Flight Status: Arrived
Operator: Privately registered:
United States
More flights under this callsign
Pilot: Wayne R. (17783)
Aircraft: CESSNA 152 AEROBAT
(C152)
More flights by this aircraft type
Origin: KRIV March ARB
United States
Destination: KOXR Oxnard
United States
More flights between these airports :: More routes between these airports
Route: +VNY FIM
File this flight plan on PilotEdge
Remarks:
Altitude:
(Current/Filed)
6,000ft
Speed:
(Current/Filed)
95kts
Departed: 19-Oct-19 09:53 AM
Arrived: 19-Oct-19 10:54 AM
Distance/Time
Traveled:
98nm/1:00
Distance/Time
To Go:
Arrived

Flight Plot

Page will automatically refresh every two minutes.

Flight plan parsing failed; only flown route is shown


Map Options




Map Legend


Flown Route
Filed Route
Departure Airport
Arrival Airport
Navaid (VOR, NDB)
Fix

Horizontal Profiles

Position Reports

Time Latitude Longitude Heading Altitude Ground
Speed
19-Oct-19 09:43 33.887939 -117.248568 62 1502ft 0kts
19-Oct-19 09:44 33.887939 -117.248568 62 1502ft 0kts
19-Oct-19 09:45 33.887939 -117.248568 62 1502ft 0kts
19-Oct-19 09:46 33.887939 -117.248568 62 1502ft 0kts
19-Oct-19 09:47 33.886531 -117.248417 172 1502ft 18kts
19-Oct-19 09:48 33.880249 -117.249281 206 1493ft 25kts
19-Oct-19 09:49 33.875913 -117.251842 202 1492ft 0kts
19-Oct-19 09:50 33.873683 -117.253176 204 1495ft 0kts
19-Oct-19 09:51 33.873585 -117.253222 198 1495ft 8kts
19-Oct-19 09:52 33.884374 -117.262494 327 1654ft 87kts
19-Oct-19 09:53 33.904814 -117.278248 327 2255ft 86kts
19-Oct-19 09:54 33.924604 -117.293772 327 2850ft 83kts
19-Oct-19 09:55 33.943583 -117.308892 327 3442ft 80kts
19-Oct-19 09:56 33.961551 -117.323394 327 4030ft 76kts
19-Oct-19 09:57 33.978163 -117.337753 304 4612ft 73kts
19-Oct-19 09:58 33.984861 -117.360346 293 5198ft 69kts
19-Oct-19 09:59 33.990304 -117.381934 293 5731ft 70kts
19-Oct-19 10:00 33.996067 -117.408543 290 5995ft 92kts
19-Oct-19 10:01 34.003235 -117.440768 290 6010ft 100kts
19-Oct-19 10:02 34.009923 -117.473305 288 6009ft 99kts
19-Oct-19 10:03 34.016167 -117.505338 288 6011ft 97kts
19-Oct-19 10:04 34.022655 -117.536856 289 6012ft 96kts
19-Oct-19 10:05 34.029516 -117.568054 289 6012ft 96kts
19-Oct-19 10:06 34.036364 -117.599208 289 6012ft 96kts
19-Oct-19 10:07 34.043132 -117.630474 289 6012ft 96kts
19-Oct-19 10:08 34.049751 -117.662137 289 6012ft 98kts
19-Oct-19 10:09 34.056327 -117.694452 289 6012ft 99kts
19-Oct-19 10:10 34.062927 -117.727281 289 6013ft 101kts
19-Oct-19 10:11 34.069701 -117.760740 289 6014ft 104kts
19-Oct-19 10:12 34.077132 -117.795021 289 6016ft 106kts
19-Oct-19 10:13 34.084858 -117.830055 289 6018ft 109kts
19-Oct-19 10:14 34.095011 -117.862736 289 6022ft 107kts
19-Oct-19 10:15 34.102073 -117.899199 287 6024ft 114kts
19-Oct-19 10:16 34.109002 -117.936880 287 6025ft 114kts
19-Oct-19 10:17 34.115666 -117.974024 288 6026ft 111kts
19-Oct-19 10:18 34.123148 -118.009908 289 6027ft 109kts
19-Oct-19 10:19 34.130451 -118.044593 289 6026ft 100kts
19-Oct-19 10:20 34.137137 -118.076490 288 6031ft 98kts
19-Oct-19 10:21 34.143564 -118.108758 288 6026ft 99kts
19-Oct-19 10:22 34.149800 -118.141660 288 6021ft 101kts
19-Oct-19 10:23 34.155931 -118.175193 288 6017ft 103kts
19-Oct-19 10:24 34.160323 -118.209805 272 6011ft 109kts
19-Oct-19 10:25 34.157524 -118.246870 269 6006ft 112kts
19-Oct-19 10:26 34.155211 -118.284555 272 5999ft 114kts
19-Oct-19 10:27 34.156340 -118.322219 272 5991ft 107kts
19-Oct-19 10:28 34.156929 -118.359535 275 5998ft 119kts
19-Oct-19 10:29 34.158137 -118.399874 277 5994ft 119kts
19-Oct-19 10:30 34.159455 -118.438895 277 5993ft 113kts
19-Oct-19 10:31 34.160787 -118.475889 277 5993ft 107kts
19-Oct-19 10:32 34.162460 -118.510904 279 5993ft 102kts
19-Oct-19 10:33 34.164168 -118.544768 280 5993ft 100kts
19-Oct-19 10:34 34.165880 -118.578069 280 5993ft 98kts
19-Oct-19 10:35 34.167634 -118.610827 280 5996ft 97kts
19-Oct-19 10:37 34.169443 -118.643638 280 5998ft 98kts
19-Oct-19 10:38 34.171288 -118.675988 279 6002ft 98kts
19-Oct-19 10:39 34.173255 -118.709066 279 6004ft 98kts
19-Oct-19 10:40 34.175294 -118.742119 279 6007ft 98kts
19-Oct-19 10:41 34.177397 -118.775110 279 6009ft 98kts
19-Oct-19 10:42 34.179829 -118.809822 279 5725ft 112kts
19-Oct-19 10:43 34.183658 -118.848258 282 5236ft 116kts
19-Oct-19 10:44 34.188537 -118.885781 282 4729ft 107kts
19-Oct-19 10:45 34.192656 -118.921132 280 4247ft 104kts
19-Oct-19 10:46 34.196193 -118.954967 277 4020ft 97kts
19-Oct-19 10:47 34.199028 -118.987117 279 4019ft 95kts
19-Oct-19 10:48 34.198731 -119.018824 265 3996ft 90kts
19-Oct-19 10:49 34.196456 -119.051900 271 3448ft 98kts
19-Oct-19 10:50 34.198473 -119.085029 277 2754ft 99kts
19-Oct-19 10:51 34.199770 -119.120595 272 1964ft 109kts
19-Oct-19 10:52 34.200484 -119.156115 270 1226ft 106kts
19-Oct-19 10:53 34.200779 -119.191130 270 252ft 103kts
19-Oct-19 10:53 34.200050 -119.207165 178 35ft 5kts
19-Oct-19 10:55 34.199259 -119.202159 147 39ft 8kts
19-Oct-19 10:56 34.198656 -119.202965 266 39ft 0kts

Navigation Log

Ident Type
Flight plan parsing failed, navigation log unavailable